map of LSZ home
LSZ - Airport
Location
City:  Mali Losinj, Losinj, Croatia
ICAO:LDLO
IATA:LSZ

Details
Type:Airport (Aerodrome, Airfield)
Latitude:4434'01"N (44.566944)
Longitude:1423'38"E (14.393889)
Elevation:154 ft (47 m)
Variation:3.53E (WMM2015 magnetic declination)
0.11 annual change
Runways:1
Longest:2725 × 70 ft (831 × 21.5 m)

Time
Time Zone:UTC+1 (DST+2)
Local Time:

Weather
METAR:LDLO 210600Z 07004KT 8000 BR NSC 17/15 Q1021
TAF:LDLO 201125Z 2012/2112 29005KT 6000 NSC TX19/2012Z TN16/2105Z
TEMPO 2012/2015 21008KT PROB30
TEMPO 2100/2110 4000 BR BKN014

Related Locations
Nearby:
Farthest:CHT: 11899 mi / 19150 km
Waitangi [Tuuta], CIT, NZ

Find:

   beyond  
but within

Other Information
Maps:
NOTAMs:
Links:
Sources:

  
flag of Croatia   

Sectional Chart

Flight Planning
at skyvector.com

Satellite Image

Google Maps Satellite view

 

Copyright © 2004-2017 Karl L. Swartz. All rights reserved.
The Great Circle Mapper name and logo are trademarks of the Great Circle Mapper.
All other trademarks mentioned herein belong to their respective owners.
Please see credits for attibutions and further copyright information.

  Follow gcmap on Facebook Follow gcmap on Twitter Follow gcmap on Google+ GCmap on LinkedIn

hCard Microformat

Geo Microformat